Back to Top

Language: 

My Weather Underground Personal Weather Station Historical Data with Graphs...

Delerius Weather Station Historical Data
Daily Summary for May 9, 2017 Units:  Metric    English   Both
« Previous Day
Next Day »
Daily Weekly Monthly Yearly Custom
  High: Low: Average:
Temperature: 12.9 °C 5.6 °C 8.6 °C
Dew Point: 4.4 °C 2.3 °C 3.3 °C
Humidity: 82 % 55 % 70 %
Wind Speed: 9.7 km/h 0 km/h 3.7 km/h
Wind Gust: 20.9 km/h - -
Wind:- - East
Pressure: 1029.7 hPa 1015.1 hPa -
Precipitation: 0 mm    
Historical Graphs
 
 
Tabular Data for May 9, 2017
Time Temperature Dew Point Pressure Wind Wind Speed Wind Gust Humidity Rainfall Rate (Hourly) solar Conditions
00:02 7.1 °C 2.6 °C 1029.7 hPa ENE 3.2 km/h 12.9 km/h 73 % 0 mm 0 W/m2
00:07 7 °C 2.5 °C 1029.7 hPa ENE 6.4 km/h 12.9 km/h 73 % 0 mm 0 W/m2
00:12 7 °C 2.5 °C 1029.7 hPa ENE 4.8 km/h 12.9 km/h 73 % 0 mm 0 W/m2
00:17 7 °C 2.5 °C 1029.7 hPa NE 3.2 km/h 12.9 km/h 73 % 0 mm 0 W/m2
00:22 7 °C 2.5 °C 1029.7 hPa NNE 3.2 km/h 12.9 km/h 73 % 0 mm 0 W/m2
00:27 7 °C 2.7 °C 1029.7 hPa NNE 4.8 km/h 14.5 km/h 74 % 0 mm 0 W/m2
00:32 7 °C 2.7 °C 1029.7 hPa NNE 3.2 km/h 14.5 km/h 74 % 0 mm 0 W/m2
00:37 7 °C 2.7 °C 1029.7 hPa Calm   8 km/h 74 % 0 mm 0 W/m2
00:42 7 °C 2.7 °C 1029.7 hPa North 1.6 km/h 9.7 km/h 74 % 0 mm 0 W/m2
00:47 6.9 °C 2.6 °C 1029.7 hPa NNE 4.8 km/h 16.1 km/h 74 % 0 mm 0 W/m2
00:52 6.9 °C 2.6 °C 1029.7 hPa NE 8 km/h 19.3 km/h 74 % 0 mm 0 W/m2
00:57 6.9 °C 2.6 °C 1029.7 hPa NE 6.4 km/h 19.3 km/h 74 % 0 mm 0 W/m2
01:02 6.9 °C 2.6 °C 1029.3 hPa NNE 8 km/h 17.7 km/h 74 % 0 mm 0 W/m2
01:07 6.9 °C 2.6 °C 1029.3 hPa NNE 9.7 km/h 20.9 km/h 74 % 0 mm 0 W/m2
01:12 6.9 °C 2.6 °C 1029.3 hPa NNE 9.7 km/h 20.9 km/h 74 % 0 mm 0 W/m2
01:13 6.9 °C 2.6 °C 1029.3 hPa NE 8 km/h 20.9 km/h 74 % 0 mm 0 W/m2
01:18 6.9 °C 2.6 °C 1029.3 hPa NE 6.4 km/h 17.7 km/h 74 % 0 mm 0 W/m2
01:23 6.9 °C 2.6 °C 1029.3 hPa NE 4.8 km/h 12.9 km/h 74 % 0 mm 0 W/m2
01:28 6.9 °C 2.6 °C 1029.3 hPa NE 4.8 km/h 16.1 km/h 74 % 0 mm 0 W/m2
01:33 6.8 °C 2.3 °C 1029.3 hPa NNE 4.8 km/h 16.1 km/h 73 % 0 mm 0 W/m2
01:38 6.8 °C 2.3 °C 1029.3 hPa NE 4.8 km/h 14.5 km/h 73 % 0 mm 0 W/m2
01:43 6.8 °C 2.3 °C 1029.3 hPa NE 4.8 km/h 19.3 km/h 73 % 0 mm 0 W/m2
01:48 6.8 °C 2.5 °C 1029.3 hPa NE 6.4 km/h 19.3 km/h 74 % 0 mm 0 W/m2
02:03 6.8 °C 2.5 °C 1029 hPa NE 3.2 km/h 12.9 km/h 74 % 0 mm 0 W/m2
02:08 6.8 °C 2.5 °C 1029 hPa NE 4.8 km/h 14.5 km/h 74 % 0 mm 0 W/m2
02:14 6.8 °C 2.5 °C 1029 hPa NE 4.8 km/h 14.5 km/h 74 % 0 mm 0 W/m2
02:19 6.8 °C 2.5 °C 1029 hPa NNE 3.2 km/h 12.9 km/h 74 % 0 mm 0 W/m2
02:24 6.8 °C 2.5 °C 1029 hPa NNE 6.4 km/h 14.5 km/h 74 % 0 mm 0 W/m2
02:29 6.8 °C 2.7 °C 1029 hPa NNE 8 km/h 14.5 km/h 75 % 0 mm 0 W/m2
02:34 6.8 °C 2.7 °C 1028.7 hPa NNE 8 km/h 16.1 km/h 75 % 0 mm 0 W/m2
02:39 6.8 °C 2.7 °C 1028.7 hPa NNE 6.4 km/h 16.1 km/h 75 % 0 mm 0 W/m2
02:44 6.8 °C 2.7 °C 1028.7 hPa NNE 4.8 km/h 14.5 km/h 75 % 0 mm 0 W/m2
02:49 6.8 °C 2.7 °C 1028.7 hPa NE 3.2 km/h 14.5 km/h 75 % 0 mm 0 W/m2
02:54 6.7 °C 2.6 °C 1028.7 hPa NE 4.8 km/h 12.9 km/h 75 % 0 mm 0 W/m2
02:59 6.7 °C 2.6 °C 1028.7 hPa NE 6.4 km/h 12.9 km/h 75 % 0 mm 0 W/m2
03:04 6.7 °C 2.6 °C 1028.7 hPa NE 4.8 km/h 12.9 km/h 75 % 0 mm 0 W/m2
03:09 6.7 °C 2.6 °C 1028.7 hPa ENE 3.2 km/h 9.7 km/h 75 % 0 mm 0 W/m2
03:14 6.7 °C 2.6 °C 1028.7 hPa NNE 4.8 km/h 12.9 km/h 75 % 0 mm 0 W/m2
03:19 6.7 °C 2.6 °C 1028.7 hPa NNE 4.8 km/h 12.9 km/h 75 % 0 mm 0 W/m2
03:24 6.7 °C 2.6 °C 1028.3 hPa NE 3.2 km/h 11.3 km/h 75 % 0 mm 0 W/m2
03:29 6.7 °C 2.6 °C 1028.3 hPa NNE 3.2 km/h 11.3 km/h 75 % 0 mm 0 W/m2
03:34 6.7 °C 2.6 °C 1028.3 hPa NNE 3.2 km/h 11.3 km/h 75 % 0 mm 0 W/m2
03:39 6.6 °C 2.5 °C 1028.3 hPa NNE 4.8 km/h 14.5 km/h 75 % 0 mm 0 W/m2
03:44 6.6 °C 2.7 °C 1028.3 hPa NE 6.4 km/h 14.5 km/h 76 % 0 mm 0 W/m2
03:49 6.6 °C 2.7 °C 1028.3 hPa NE 3.2 km/h 12.9 km/h 76 % 0 mm 0 W/m2
03:54 6.6 °C 2.7 °C 1028 hPa NNE 1.6 km/h 8 km/h 76 % 0 mm 0 W/m2
03:59 6.6 °C 2.7 °C 1028 hPa NNE 3.2 km/h 12.9 km/h 76 % 0 mm 0 W/m2
04:04 6.6 °C 2.5 °C 1028 hPa North 4.8 km/h 12.9 km/h 75 % 0 mm 0 W/m2
04:09 6.6 °C 2.5 °C 1028 hPa NNE 3.2 km/h 9.7 km/h 75 % 0 mm 0 W/m2
04:14 6.6 °C 2.5 °C 1028 hPa NE 4.8 km/h 16.1 km/h 75 % 0 mm 0 W/m2
04:19 6.6 °C 2.5 °C 1028 hPa NE 6.4 km/h 16.1 km/h 75 % 0 mm 0 W/m2
04:24 6.6 °C 2.5 °C 1028 hPa NE 4.8 km/h 14.5 km/h 75 % 0 mm 0 W/m2
04:29 6.6 °C 2.5 °C 1028 hPa NNE 3.2 km/h 11.3 km/h 75 % 0 mm 0 W/m2
04:34 6.5 °C 2.4 °C 1028 hPa NE 4.8 km/h 12.9 km/h 75 % 0 mm 0 W/m2
04:39 6.5 °C 2.4 °C 1028 hPa NE 3.2 km/h 12.9 km/h 75 % 0 mm 0 W/m2
04:44 6.5 °C 2.4 °C 1028 hPa NE 3.2 km/h 11.3 km/h 75 % 0 mm 0 W/m2
04:49 6.5 °C 2.4 °C 1027.7 hPa NE 3.2 km/h 11.3 km/h 75 % 0 mm 0 W/m2
04:54 6.5 °C 2.6 °C 1027.7 hPa NE 3.2 km/h 8 km/h 76 % 0 mm 0 W/m2
05:00 6.5 °C 2.6 °C 1027.7 hPa NE 3.2 km/h 11.3 km/h 76 % 0 mm 0 W/m2
05:05 6.5 °C 2.6 °C 1027.7 hPa NE 3.2 km/h 11.3 km/h 76 % 0 mm 0 W/m2
05:10 6.4 °C 2.3 °C 1027.7 hPa NE 4.8 km/h 19.3 km/h 75 % 0 mm 0 W/m2
05:15 6.4 °C 2.3 °C 1027.7 hPa NE 6.4 km/h 19.3 km/h 75 % 0 mm 0 W/m2
05:20 6.4 °C 2.3 °C 1027.7 hPa ENE 6.4 km/h 16.1 km/h 75 % 0 mm 0 W/m2
05:25 6.4 °C 2.5 °C 1027.7 hPa NE 6.4 km/h 16.1 km/h 76 % 0 mm 0 W/m2
05:30 6.4 °C 2.5 °C 1027.7 hPa NE 6.4 km/h 14.5 km/h 76 % 0 mm 0 W/m2
05:35 6.4 °C 2.5 °C 1027.3 hPa NE 4.8 km/h 14.5 km/h 76 % 0 mm 5 W/m2
05:40 6.4 °C 2.5 °C 1027.3 hPa NE 3.2 km/h 14.5 km/h 76 % 0 mm 7 W/m2
05:45 6.4 °C 2.5 °C 1027.3 hPa NE 1.6 km/h 14.5 km/h 76 % 0 mm 9 W/m2
05:50 6.4 °C 2.5 °C 1027.3 hPa NE 3.2 km/h 12.9 km/h 76 % 0 mm 9 W/m2
05:55 6.4 °C 2.3 °C 1027.3 hPa NE 6.4 km/h 16.1 km/h 75 % 0 mm 12 W/m2
06:00 6.4 °C 2.3 °C 1027.3 hPa ENE 6.4 km/h 16.1 km/h 75 % 0 mm 12 W/m2
06:01 6.4 °C 2.3 °C 1027.3 hPa ENE 4.8 km/h 11.3 km/h 75 % 0 mm 12 W/m2
06:06 6.4 °C 2.5 °C 1027.3 hPa ENE 4.8 km/h 11.3 km/h 76 % 0 mm 12 W/m2
06:11 6.4 °C 2.5 °C 1027.3 hPa ENE 4.8 km/h 11.3 km/h 76 % 0 mm 16 W/m2
06:12 6.4 °C 2.5 °C 1027.3 hPa ENE 4.8 km/h 11.3 km/h 76 % 0 mm 18 W/m2
06:17 6.4 °C 2.5 °C 1027.3 hPa NE 4.8 km/h 11.3 km/h 76 % 0 mm 21 W/m2
06:22 6.4 °C 2.5 °C 1027 hPa NE 3.2 km/h 9.7 km/h 76 % 0 mm 28 W/m2
06:27 6.4 °C 2.7 °C 1027 hPa NE 3.2 km/h 12.9 km/h 77 % 0 mm 28 W/m2
06:32 6.4 °C 2.7 °C 1027 hPa ENE 4.8 km/h 12.9 km/h 77 % 0 mm 32 W/m2
06:37 6.4 °C 2.7 °C 1027 hPa ENE 4.8 km/h 12.9 km/h 77 % 0 mm 33 W/m2
06:42 6.4 °C 2.7 °C 1027 hPa ENE 4.8 km/h 16.1 km/h 77 % 0 mm 33 W/m2
06:47 6.4 °C 2.7 °C 1027 hPa ENE 8 km/h 16.1 km/h 77 % 0 mm 33 W/m2
06:52 6.5 °C 2.8 °C 1027 hPa ENE 8 km/h 16.1 km/h 77 % 0 mm 35 W/m2
06:57 6.5 °C 2.8 °C 1027 hPa ENE 6.4 km/h 16.1 km/h 77 % 0 mm 44 W/m2
07:02 6.5 °C 2.8 °C 1027 hPa NE 6.4 km/h 19.3 km/h 77 % 0 mm 63 W/m2
07:07 6.6 °C 2.7 °C 1027 hPa NE 4.8 km/h 19.3 km/h 76 % 0 mm 67 W/m2
07:13 6.6 °C 2.7 °C 1027 hPa NE 3.2 km/h 14.5 km/h 76 % 0 mm 53 W/m2
07:18 6.7 °C 2.9 °C 1027 hPa NE 1.6 km/h 11.3 km/h 77 % 0 mm 51 W/m2
07:23 6.7 °C 2.8 °C 1027 hPa ENE 1.6 km/h 9.7 km/h 76 % 0 mm 42 W/m2
07:28 6.7 °C 2.8 °C 1027 hPa ENE 3.2 km/h 12.9 km/h 76 % 0 mm 46 W/m2
07:33 6.7 °C 2.8 °C 1027 hPa NE 6.4 km/h 12.9 km/h 76 % 0 mm 49 W/m2
07:38 6.7 °C 2.8 °C 1026.6 hPa NNE 6.4 km/h 14.5 km/h 76 % 0 mm 56 W/m2
07:43 6.7 °C 2.8 °C 1026.6 hPa NNE 4.8 km/h 14.5 km/h 76 % 0 mm 60 W/m2
07:48 6.7 °C 2.8 °C 1026.6 hPa NNE 6.4 km/h 12.9 km/h 76 % 0 mm 65 W/m2
07:53 6.7 °C 2.8 °C 1026.6 hPa NE 8 km/h 16.1 km/h 76 % 0 mm 74 W/m2
07:58 6.7 °C 2.8 °C 1026.6 hPa NE 6.4 km/h 16.1 km/h 76 % 0 mm 70 W/m2
08:03 6.8 °C 3.1 °C 1026.6 hPa NE 3.2 km/h 11.3 km/h 77 % 0 mm 72 W/m2
08:08 6.8 °C 2.9 °C 1026.6 hPa NE 3.2 km/h 11.3 km/h 76 % 0 mm 86 W/m2
08:13 6.8 °C 2.9 °C 1026.6 hPa NE 4.8 km/h 14.5 km/h 76 % 0 mm 77 W/m2
08:18 6.8 °C 2.9 °C 1026.3 hPa NNE 8 km/h 14.5 km/h 76 % 0 mm 91 W/m2
08:23 6.8 °C 2.9 °C 1026.3 hPa NE 6.4 km/h 14.5 km/h 76 % 0 mm 93 W/m2
08:28 6.8 °C 2.9 °C 1026.3 hPa ENE 6.4 km/h 12.9 km/h 76 % 0 mm 93 W/m2
08:33 6.9 °C 2.9 °C 1026.3 hPa ENE 6.4 km/h 12.9 km/h 76 % 0 mm 91 W/m2
08:38 6.9 °C 2.9 °C 1026.6 hPa ENE 6.4 km/h 12.9 km/h 76 % 0 mm 88 W/m2
08:43 6.9 °C 2.9 °C 1026.3 hPa NE 6.4 km/h 14.5 km/h 76 % 0 mm 97 W/m2
08:48 6.9 °C 2.9 °C 1026.3 hPa NE 4.8 km/h 14.5 km/h 76 % 0 mm 98 W/m2
08:53 7 °C 3.1 °C 1026.3 hPa ENE 4.8 km/h 11.3 km/h 76 % 0 mm 97 W/m2
08:58 7 °C 3.1 °C 1026.3 hPa NE 4.8 km/h 16.1 km/h 76 % 0 mm 97 W/m2
09:04 7 °C 3.1 °C 1026.3 hPa NE 6.4 km/h 16.1 km/h 76 % 0 mm 113 W/m2
09:09 7 °C 3.1 °C 1026 hPa ENE 4.8 km/h 12.9 km/h 76 % 0 mm 121 W/m2
09:14 7.1 °C 3.2 °C 1026 hPa ENE 4.8 km/h 11.3 km/h 76 % 0 mm 120 W/m2
09:19 7.1 °C 3.2 °C 1026 hPa ENE 4.8 km/h 11.3 km/h 76 % 0 mm 116 W/m2
09:24 7.2 °C 3.1 °C 1026 hPa ENE 3.2 km/h 11.3 km/h 75 % 0 mm 118 W/m2
09:29 7.2 °C 3.1 °C 1026 hPa NE 4.8 km/h 12.9 km/h 75 % 0 mm 137 W/m2
09:34 7.2 °C 3.1 °C 1025.6 hPa NE 6.4 km/h 14.5 km/h 75 % 0 mm 151 W/m2
09:39 7.3 °C 3.2 °C 1025.6 hPa ENE 4.8 km/h 14.5 km/h 75 % 0 mm 171 W/m2
09:44 7.3 °C 3.2 °C 1025.6 hPa ENE 6.4 km/h 14.5 km/h 75 % 0 mm 181 W/m2
09:49 7.4 °C 3.3 °C 1025.6 hPa ENE 4.8 km/h 14.5 km/h 75 % 0 mm 186 W/m2
09:54 7.5 °C 3.2 °C 1025.6 hPa ENE 4.8 km/h 12.9 km/h 74 % 0 mm 176 W/m2
09:59 7.6 °C 3.4 °C 1025.6 hPa East 4.8 km/h 12.9 km/h 75 % 0 mm 146 W/m2
10:04 7.6 °C 3.3 °C 1026 hPa East 4.8 km/h 11.3 km/h 74 % 0 mm 135 W/m2
10:09 7.6 °C 3.3 °C 1025.6 hPa ENE 4.8 km/h 12.9 km/h 74 % 0 mm 123 W/m2
10:14 7.6 °C 3.3 °C 1025.6 hPa NNE 3.2 km/h 12.9 km/h 74 % 0 mm 141 W/m2
10:19 7.6 °C 3.4 °C 1025.6 hPa NNE 1.6 km/h 9.7 km/h 75 % 0 mm 148 W/m2
10:24 7.6 °C 3.4 °C 1025.6 hPa NNE 1.6 km/h 9.7 km/h 75 % 0 mm 155 W/m2
10:29 7.7 °C 3.3 °C 1025.3 hPa NNE 1.6 km/h 8 km/h 74 % 0 mm 155 W/m2
10:34 7.7 °C 3.2 °C 1025.3 hPa NNE 3.2 km/h 9.7 km/h 73 % 0 mm 179 W/m2
10:39 7.8 °C 3.3 °C 1025.3 hPa NE 3.2 km/h 9.7 km/h 73 % 0 mm 192 W/m2
10:44 7.9 °C 3.3 °C 1025.3 hPa NE 4.8 km/h 14.5 km/h 73 % 0 mm 213 W/m2
10:49 8 °C 3.4 °C 1025.3 hPa ENE 4.8 km/h 14.5 km/h 73 % 0 mm 202 W/m2
10:54 8 °C 3.4 °C 1025.3 hPa ENE 3.2 km/h 9.7 km/h 73 % 0 mm 193 W/m2
10:59 8.1 °C 3.3 °C 1025.3 hPa ENE 1.6 km/h 9.7 km/h 72 % 0 mm 186 W/m2
11:04 8.1 °C 3.3 °C 1025.3 hPa ESE 1.6 km/h 8 km/h 72 % 0 mm 192 W/m2
11:09 8.2 °C 3.7 °C 1025.3 hPa ESE 1.6 km/h 9.7 km/h 73 % 0 mm 199 W/m2
11:14 8.3 °C 3.6 °C 1025.3 hPa ENE 1.6 km/h 9.7 km/h 72 % 0 mm 197 W/m2
11:19 8.3 °C 3.6 °C 1024.9 hPa ENE 3.2 km/h 9.7 km/h 72 % 0 mm 211 W/m2
11:24 8.3 °C 3.3 °C 1024.9 hPa ENE 3.2 km/h 9.7 km/h 71 % 0 mm 234 W/m2
11:29 8.3 °C 3.3 °C 1024.9 hPa ENE 3.2 km/h 9.7 km/h 71 % 0 mm 251 W/m2
11:30 8.3 °C 3.2 °C 1024.9 hPa ENE 3.2 km/h 9.7 km/h 70 % 0 mm 257 W/m2
11:35 8.4 °C 3.4 °C 1024.9 hPa ENE 3.2 km/h 9.7 km/h 71 % 0 mm 237 W/m2
11:40 8.5 °C 3.3 °C 1024.9 hPa NE 1.6 km/h 8 km/h 70 % 0 mm 234 W/m2
11:45 8.6 °C 3.2 °C 1024.9 hPa NE 1.6 km/h 8 km/h 69 % 0 mm 216 W/m2
13:30 9.8 °C 3.5 °C 1023.6 hPa NE 3.2 km/h 11.3 km/h 65 % 0 mm 304 W/m2
13:35 9.8 °C 3.3 °C 1023.2 hPa NE 3.2 km/h 11.3 km/h 64 % 0 mm 292 W/m2
13:40 9.9 °C 3.6 °C 1023.6 hPa NE 3.2 km/h 9.7 km/h 65 % 0 mm 274 W/m2
13:45 9.9 °C 3.6 °C 1023.2 hPa NE 1.6 km/h 9.7 km/h 65 % 0 mm 278 W/m2
13:50 9.9 °C 3.8 °C 1023.2 hPa NE 1.6 km/h 9.7 km/h 66 % 0 mm 302 W/m2
13:55 10 °C 3.7 °C 1022.9 hPa ESE 1.6 km/h 9.7 km/h 65 % 0 mm 325 W/m2
14:00 9.9 °C 3.6 °C 1022.9 hPa ESE 1.6 km/h 9.7 km/h 65 % 0 mm 330 W/m2
14:05 9.9 °C 3.6 °C 1022.9 hPa SE 1.6 km/h 6.4 km/h 65 % 0 mm 373 W/m2
14:10 10.1 °C 3.8 °C 1022.9 hPa South 1.6 km/h 9.7 km/h 65 % 0 mm 408 W/m2
14:15 10.1 °C 3.6 °C 1022.9 hPa South 4.8 km/h 11.3 km/h 64 % 0 mm 376 W/m2
14:20 10.1 °C 3.6 °C 1022.6 hPa South 6.4 km/h 11.3 km/h 64 % 0 mm 554 W/m2
14:25 10 °C 3.5 °C 1022.6 hPa South 4.8 km/h 12.9 km/h 64 % 0 mm 374 W/m2
14:30 10.1 °C 3.6 °C 1022.6 hPa South 1.6 km/h 12.9 km/h 64 % 0 mm 454 W/m2
14:35 10.1 °C 3.6 °C 1022.2 hPa South 1.6 km/h 6.4 km/h 64 % 0 mm 466 W/m2
14:40 10.2 °C 3.4 °C 1022.2 hPa South 1.6 km/h 6.4 km/h 63 % 0 mm 541 W/m2
14:45 10.5 °C 3.7 °C 1022.2 hPa SW 1.6 km/h 8 km/h 63 % 0 mm 531 W/m2
14:50 10.9 °C 3.9 °C 1021.9 hPa West 1.6 km/h 8 km/h 62 % 0 mm 1071 W/m2
14:55 11.3 °C 4.3 °C 1021.9 hPa SW 1.6 km/h 8 km/h 62 % 0 mm 984 W/m2
15:00 11.5 °C 3.8 °C 1021.9 hPa SSE 3.2 km/h 9.7 km/h 59 % 0 mm 958 W/m2
15:01 11.5 °C 3.8 °C 1021.9 hPa SSE 3.2 km/h 9.7 km/h 59 % 0 mm 958 W/m2
15:06 11.7 °C 3.7 °C 1021.6 hPa SE 4.8 km/h 11.3 km/h 58 % 0 mm 889 W/m2
15:11 11.7 °C 3.7 °C 1021.6 hPa SSE 4.8 km/h 16.1 km/h 58 % 0 mm 867 W/m2
15:16 11.9 °C 3.9 °C 1021.2 hPa SSW 3.2 km/h 16.1 km/h 58 % 0 mm 905 W/m2
15:21 12.2 °C 3.9 °C 1021.2 hPa SW 1.6 km/h 11.3 km/h 57 % 0 mm 805 W/m2
15:26 12.3 °C 4 °C 1021.2 hPa SSW 4.8 km/h 14.5 km/h 57 % 0 mm 791 W/m2
15:31 12.1 °C 3.6 °C 1020.9 hPa SSW 4.8 km/h 14.5 km/h 56 % 0 mm 759 W/m2
15:36 12.1 °C 3.8 °C 1020.9 hPa SSE 3.2 km/h 11.3 km/h 57 % 0 mm 738 W/m2
15:41 12 °C 4 °C 1020.9 hPa SE 3.2 km/h 11.3 km/h 58 % 0 mm 722 W/m2
15:46 12.2 °C 3.7 °C 1020.5 hPa SSE 1.6 km/h 9.7 km/h 56 % 0 mm 703 W/m2
15:51 12.2 °C 3.7 °C 1020.5 hPa SSE 1.6 km/h 9.7 km/h 56 % 0 mm 686 W/m2
15:57 12.4 °C 4.1 °C 1020.5 hPa South 1.6 km/h 4.8 km/h 57 % 0 mm 684 W/m2
16:02 12.6 °C 4.3 °C 1020.5 hPa SE 1.6 km/h 11.3 km/h 57 % 0 mm 668 W/m2
16:07 12.5 °C 3.9 °C 1020.2 hPa ESE 3.2 km/h 11.3 km/h 56 % 0 mm 647 W/m2
16:12 12.4 °C 4.1 °C 1020.2 hPa East 3.2 km/h 11.3 km/h 57 % 0 mm 645 W/m2
16:17 12.6 °C 4.3 °C 1020.2 hPa East 3.2 km/h 11.3 km/h 57 % 0 mm 635 W/m2
16:22 12.7 °C 4.2 °C 1019.9 hPa ESE 3.2 km/h 12.9 km/h 56 % 0 mm 626 W/m2
16:27 12.3 °C 3.8 °C 1019.9 hPa ESE 3.2 km/h 12.9 km/h 56 % 0 mm 594 W/m2
16:32 12 °C 3.7 °C 1019.9 hPa ENE 3.2 km/h 9.7 km/h 57 % 0 mm 587 W/m2
16:35 12 °C 3.7 °C 1019.9 hPa ENE 1.6 km/h 8 km/h 57 % 0 mm 577 W/m2
16:40 12.3 °C 4 °C 1019.5 hPa SE 1.6 km/h 8 km/h 57 % 0 mm 564 W/m2
16:45 12.3 °C 3.8 °C 1019.5 hPa ESE 3.2 km/h 9.7 km/h 56 % 0 mm 559 W/m2
16:50 12.4 °C 3.8 °C 1019.5 hPa East 3.2 km/h 9.7 km/h 56 % 0 mm 541 W/m2
16:56 12.6 °C 4.1 °C 1019.5 hPa East 3.2 km/h 12.9 km/h 56 % 0 mm 527 W/m2
17:01 12.6 °C 4.3 °C 1019.2 hPa East 4.8 km/h 12.9 km/h 57 % 0 mm 513 W/m2
17:06 12.5 °C 4.2 °C 1019.2 hPa ENE 3.2 km/h 11.3 km/h 57 % 0 mm 499 W/m2
17:11 12.6 °C 4.3 °C 1018.8 hPa NE 3.2 km/h 11.3 km/h 57 % 0 mm 482 W/m2
17:16 12.7 °C 4.2 °C 1018.8 hPa East 4.8 km/h 12.9 km/h 56 % 0 mm 471 W/m2
17:21 12.6 °C 4.3 °C 1018.8 hPa ESE 4.8 km/h 12.9 km/h 57 % 0 mm 452 W/m2
17:26 12.6 °C 4.3 °C 1018.8 hPa East 3.2 km/h 9.7 km/h 57 % 0 mm 439 W/m2
17:31 12.6 °C 4.1 °C 1018.8 hPa East 4.8 km/h 16.1 km/h 56 % 0 mm 429 W/m2
17:36 12.7 °C 4.4 °C 1018.5 hPa ESE 6.4 km/h 16.1 km/h 57 % 0 mm 418 W/m2
17:41 12.7 °C 4.4 °C 1018.5 hPa East 4.8 km/h 12.9 km/h 57 % 0 mm 406 W/m2
17:46 12.8 °C 4.2 °C 1018.5 hPa ESE 4.8 km/h 11.3 km/h 56 % 0 mm 385 W/m2
17:51 12.9 °C 4.3 °C 1018.5 hPa SE 4.8 km/h 11.3 km/h 56 % 0 mm 373 W/m2
17:56 12.9 °C 4.1 °C 1018.2 hPa SSE 3.2 km/h 9.7 km/h 55 % 0 mm 360 W/m2
18:01 12.8 °C 4 °C 1018.2 hPa SE 3.2 km/h 11.3 km/h 55 % 0 mm 343 W/m2
18:06 12.7 °C 4.2 °C 1018.2 hPa ESE 3.2 km/h 11.3 km/h 56 % 0 mm 330 W/m2
18:11 12.7 °C 4.4 °C 1018.2 hPa SE 4.8 km/h 12.9 km/h 57 % 0 mm 322 W/m2
18:16 12.7 °C 4.4 °C 1018.2 hPa SE 4.8 km/h 12.9 km/h 57 % 0 mm 308 W/m2
18:21 12.7 °C 4.4 °C 1017.8 hPa SSE 4.8 km/h 14.5 km/h 57 % 0 mm 288 W/m2
18:26 12.6 °C 4.3 °C 1017.8 hPa SSE 4.8 km/h 14.5 km/h 57 % 0 mm 272 W/m2
18:31 12.5 °C 4.2 °C 1017.8 hPa SSE 3.2 km/h 9.7 km/h 57 % 0 mm 257 W/m2
18:36 12.5 °C 4.2 °C 1017.5 hPa South 3.2 km/h 12.9 km/h 57 % 0 mm 244 W/m2
18:41 12.4 °C 4.1 °C 1017.5 hPa South 3.2 km/h 12.9 km/h 57 % 0 mm 232 W/m2
18:46 12.4 °C 4.3 °C 1017.5 hPa South 3.2 km/h 11.3 km/h 58 % 0 mm 216 W/m2
18:51 12.5 °C 4.2 °C 1017.5 hPa SSE 3.2 km/h 11.3 km/h 57 % 0 mm 206 W/m2
18:56 12.3 °C 4 °C 1017.2 hPa SSE 4.8 km/h 11.3 km/h 57 % 0 mm 190 W/m2
19:01 12.4 °C 4.3 °C 1017.2 hPa SE 3.2 km/h 11.3 km/h 58 % 0 mm 178 W/m2
19:06 12.4 °C 4.3 °C 1017.2 hPa SE 4.8 km/h 9.7 km/h 58 % 0 mm 163 W/m2
19:11 12.3 °C 4.3 °C 1017.2 hPa SE 4.8 km/h 11.3 km/h 58 % 0 mm 153 W/m2
19:16 12.2 °C 4.2 °C 1017.2 hPa SSE 4.8 km/h 12.9 km/h 58 % 0 mm 141 W/m2
19:21 12.1 °C 4.1 °C 1017.2 hPa SSE 6.4 km/h 12.9 km/h 58 % 0 mm 128 W/m2
19:26 12 °C 4 °C 1016.8 hPa SSE 8 km/h 12.9 km/h 58 % 0 mm 116 W/m2
19:31 11.8 °C 4.1 °C 1016.8 hPa SSE 6.4 km/h 12.9 km/h 59 % 0 mm 105 W/m2
19:37 11.8 °C 4.1 °C 1016.8 hPa SSE 4.8 km/h 11.3 km/h 59 % 0 mm 93 W/m2
19:42 11.8 °C 4.3 °C 1016.8 hPa SE 6.4 km/h 12.9 km/h 60 % 0 mm 79 W/m2
19:47 11.7 °C 4.2 °C 1016.8 hPa SE 6.4 km/h 12.9 km/h 60 % 0 mm 69 W/m2
19:52 11.5 °C 4.2 °C 1016.8 hPa SSE 6.4 km/h 12.9 km/h 61 % 0 mm 56 W/m2
19:57 11.3 °C 4.1 °C 1016.8 hPa SSE 6.4 km/h 11.3 km/h 61 % 0 mm 32 W/m2
20:02 11.2 °C 4.2 °C 1016.8 hPa SSE 4.8 km/h 11.3 km/h 62 % 0 mm 28 W/m2
20:07 11.1 °C 4.1 °C 1016.5 hPa SSE 3.2 km/h 9.7 km/h 62 % 0 mm 25 W/m2
20:13 11 °C 4.2 °C 1016.5 hPa SSE 3.2 km/h 9.7 km/h 63 % 0 mm 23 W/m2
20:18 10.8 °C 4.1 °C 1016.5 hPa South 1.6 km/h 8 km/h 63 % 0 mm 21 W/m2
20:23 10.7 °C 4.2 °C 1016.5 hPa SSE 1.6 km/h 8 km/h 64 % 0 mm 18 W/m2
20:28 10.6 °C 4.3 °C 1016.5 hPa SSE 1.6 km/h 9.7 km/h 65 % 0 mm 14 W/m2
20:33 10.4 °C 4.1 °C 1016.5 hPa SSE 3.2 km/h 9.7 km/h 65 % 0 mm 12 W/m2
20:38 10.3 °C 4.2 °C 1016.5 hPa SSE 3.2 km/h 8 km/h 66 % 0 mm 9 W/m2
20:43 10.2 °C 4.1 °C 1016.1 hPa SSE 3.2 km/h 9.7 km/h 66 % 0 mm 7 W/m2
20:48 10 °C 4.2 °C 1016.1 hPa SSE 3.2 km/h 9.7 km/h 67 % 0 mm 5 W/m2
20:53 9.8 °C 4.2 °C 1016.1 hPa SSE 3.2 km/h 9.7 km/h 68 % 0 mm 5 W/m2
20:58 9.7 °C 4.1 °C 1016.1 hPa SSE 1.6 km/h 9.7 km/h 68 % 0 mm 0 W/m2
21:03 9.6 °C 4.2 °C 1016.1 hPa SSE 1.6 km/h 8 km/h 69 % 0 mm 0 W/m2
21:08 9.4 °C 4 °C 1016.1 hPa SSE 3.2 km/h 8 km/h 69 % 0 mm 0 W/m2
21:13 9.3 °C 4.1 °C 1016.1 hPa SSE 3.2 km/h 8 km/h 70 % 0 mm 0 W/m2
21:18 9.2 °C 4 °C 1016.1 hPa SSE 1.6 km/h 8 km/h 70 % 0 mm 0 W/m2
21:23 9.1 °C 4.1 °C 1016.1 hPa SSE 1.6 km/h 8 km/h 71 % 0 mm 0 W/m2
21:28 8.9 °C 3.9 °C 1016.1 hPa South 1.6 km/h 8 km/h 71 % 0 mm 0 W/m2
21:33 8.8 °C 4 °C 1016.1 hPa South 1.6 km/h 8 km/h 72 % 0 mm 0 W/m2
21:38 8.7 °C 3.9 °C 1016.1 hPa South 1.6 km/h 8 km/h 72 % 0 mm 0 W/m2
21:43 8.6 °C 3.8 °C 1016.1 hPa Calm   3.2 km/h 72 % 0 mm 0 W/m2
21:48 8.5 °C 3.7 °C 1015.8 hPa Calm   3.2 km/h 72 % 0 mm 0 W/m2
21:53 8.4 °C 3.8 °C 1015.8 hPa Calm   3.2 km/h 73 % 0 mm 0 W/m2
21:58 8.3 °C 3.7 °C 1015.8 hPa Calm   3.2 km/h 73 % 0 mm 0 W/m2
22:03 8.1 °C 3.6 °C 1015.8 hPa Calm   3.2 km/h 73 % 0 mm 0 W/m2
22:08 7.9 °C 3.3 °C 1015.8 hPa Calm     73 % 0 mm 0 W/m2
22:13 7.7 °C 3.3 °C 1015.8 hPa Calm   1.6 km/h 74 % 0 mm 0 W/m2
22:18 7.6 °C 3.4 °C 1015.8 hPa Calm   1.6 km/h 75 % 0 mm 0 W/m2
22:23 7.6 °C 3.6 °C 1015.8 hPa Calm   1.6 km/h 76 % 0 mm 0 W/m2
22:28 7.5 °C 3.6 °C 1015.8 hPa Calm   3.2 km/h 76 % 0 mm 0 W/m2
22:34 7.4 °C 3.4 °C 1015.8 hPa Calm   3.2 km/h 76 % 0 mm 0 W/m2
22:39 7.2 °C 3.4 °C 1015.8 hPa Calm   3.2 km/h 77 % 0 mm 0 W/m2
22:44 7 °C 3.2 °C 1015.5 hPa Calm   1.6 km/h 77 % 0 mm 0 W/m2
22:49 6.9 °C 3.3 °C 1015.5 hPa Calm   1.6 km/h 78 % 0 mm 0 W/m2
22:54 6.8 °C 3.2 °C 1015.5 hPa Calm   1.6 km/h 78 % 0 mm 0 W/m2
22:59 6.7 °C 3.1 °C 1015.5 hPa Calm   1.6 km/h 78 % 0 mm 0 W/m2
23:04 6.7 °C 3.3 °C 1015.5 hPa WSW 1.6 km/h 8 km/h 79 % 0 mm 0 W/m2
23:09 6.8 °C 3.4 °C 1015.5 hPa WSW 1.6 km/h 8 km/h 79 % 0 mm 0 W/m2
23:14 6.8 °C 3.4 °C 1015.5 hPa Calm   4.8 km/h 79 % 0 mm 0 W/m2
23:19 6.7 °C 3.3 °C 1015.1 hPa Calm   4.8 km/h 79 % 0 mm 0 W/m2
23:24 6.6 °C 3.2 °C 1015.1 hPa Calm     79 % 0 mm 0 W/m2
23:29 6.4 °C 3 °C 1015.1 hPa Calm     79 % 0 mm 0 W/m2
23:34 6.3 °C 3.1 °C 1015.1 hPa Calm     80 % 0 mm 0 W/m2
23:39 6.1 °C 2.9 °C 1015.1 hPa Calm     80 % 0 mm 0 W/m2
23:44 6 °C 2.8 °C 1015.1 hPa Calm     80 % 0 mm 0 W/m2
23:49 5.8 °C 2.8 °C 1015.1 hPa Calm     81 % 0 mm 0 W/m2
23:54 5.7 °C 2.9 °C 1015.1 hPa Calm     82 % 0 mm 0 W/m2
23:59 5.6 °C 2.8 °C 1015.1 hPa Calm     82 % 0 mm 0 W/m2
Delerius-Weather
Compliments of Weather Underground - 2.25 mb

Data updates at regular intervals.